windsock image

Welcome to Bigfield Strip.

anemometer image
     

 Help for dials.  
 
Local Met:

Wind:   
10 Min average:  
255 ° / 2.0 kts (3.5)
257° / 4.2

Temperature:  
16.8°C C
Dew Point:  
13.0°C C
QNH:  
Trend:  
1015.0 mb mb
-0.0mb/hr
BigField Strip. This image updates approximately every minute, it can have a two minute delay.  
 

Humidity:  
78 %
Sunrise:   03:51z
Sunset:   20:24z
Updated:  
  UTC
 
   More met info, trends, radar, history etc. available here   

LUTON Metar   EGGW 051650Z 25011KT 9999 SCT045 17/13 Q1016 RESHRA
 
  TAF   2015/07/05 18:15 TAF EGGW 051658Z 0518/0618 25012KT 9999 SCT040 PROB40 TEMPO 0518/0520 26015G25KT 7000 SHRA PROB30 TEMPO 0614/0618 8000 RA
 
BENSON Metar   EGUB 051650Z AUTO 24012KT 9999 // BKN043/// 16/11 Q1016
 
  TAF   2015/07/05 15:24 TAF TAF EGUB 051510Z 0515/0518 CNL
 
Big Field view 1 icon   Big Field view 2 icon   Big Field view 3 icon   Chart AL3a in PDF icon   Chart AL3a in Word icon

WARNING:
This information is provided by the Airstrip unofficial weather station, DO NOT depend on the data provided here for any purpose.
This page is updated for latest Metars & TAF's every 5 minutes. Refresh the browser to check for the lastest.
Page designed for a minimum browser size of 1024x768.
© Copyright 2015 BigField Strip. This page auto generated 17:26 UTC - 05/07/2015   Contact Us
Valid HTML 4.01 Transitional     Windows uptime: 6 Days 14 Hours 53 Minutes 46 Seconds    WD started: 02:38 29/06/15    Free memory: 1527MB     Valid CSS!